Time;durP1;ratioP1;P1;durP2;ratioP2;P2;SDS_P1;SDS_P2;PMS_P1;PMS_P2;Temp;Humidity;BMP_temperature;BMP_pressure;BME280_temperature;BME280_humidity;BME280_pressure;Samples;Min_cycle;Max_cycle;Signal;HPM_P1;HPM_P2
2022/01/06 00:02:00;;;;;;;20.40;4.30;;;1.70;99.90;;;;;;5028593;28;20042;-85
2022/01/06 00:04:26;;;;;;;32.58;3.47;;;1.70;99.90;;;;;;5028553;28;20057;-85
2022/01/06 00:06:52;;;;;;;20.88;3.55;;;1.60;99.90;;;;;;5010259;28;20062;-86
2022/01/06 00:09:19;;;;;;;19.70;4.95;;;1.60;99.90;;;;;;5008166;28;20057;-85
2022/01/06 00:11:44;;;;;;;27.95;4.68;;;1.50;99.90;;;;;;5009240;28;20057;-85
2022/01/06 00:16:59;;;;;;;35.00;4.22;;;1.80;99.90;;;;;;5027555;28;20505;-85
2022/01/06 00:24:53;;;;;;;35.38;4.20;;;1.80;99.90;;;;;;5024404;28;20241;-85
2022/01/06 00:27:19;;;;;;;27.95;4.10;;;1.90;99.90;;;;;;5009899;28;20022;-84
2022/01/06 00:29:44;;;;;;;31.30;4.30;;;2.10;99.90;;;;;;4990439;28;20054;-85
2022/01/06 00:32:10;;;;;;;27.00;4.70;;;2.00;99.90;;;;;;5007653;28;20062;-85
2022/01/06 00:34:36;;;;;;;25.08;4.00;;;2.00;99.90;;;;;;5009422;28;20049;-84
2022/01/06 00:37:02;;;;;;;23.98;4.43;;;2.10;99.90;;;;;;4993779;28;20042;-85
2022/01/06 00:39:29;;;;;;;21.00;3.38;;;2.20;99.90;;;;;;4995305;28;20062;-86
2022/01/06 00:41:57;;;;;;;24.45;4.00;;;2.20;99.90;;;;;;5009125;28;20062;-85
2022/01/06 00:44:23;;;;;;;34.58;5.07;;;2.30;99.90;;;;;;4986590;28;20133;-85
2022/01/06 00:46:49;;;;;;;16.48;3.17;;;2.20;99.90;;;;;;4969186;28;20054;-85
2022/01/06 00:49:17;;;;;;;15.75;2.83;;;2.10;99.90;;;;;;4988109;28;20050;-85
2022/01/06 00:51:43;;;;;;;17.67;2.45;;;2.10;99.90;;;;;;5004187;28;20081;-85
2022/01/06 00:54:09;;;;;;;17.48;2.33;;;1.90;99.90;;;;;;4989670;28;20049;-85
2022/01/06 00:56:35;;;;;;;15.77;2.72;;;1.90;99.90;;;;;;4990189;28;20054;-84
2022/01/06 00:59:00;;;;;;;20.88;2.65;;;1.90;99.90;;;;;;4973966;28;20084;-85
2022/01/06 01:01:26;;;;;;;18.08;3.30;;;1.80;99.90;;;;;;5007010;28;20053;-85
2022/01/06 01:03:52;;;;;;;21.45;3.78;;;1.80;99.90;;;;;;4975153;28;20054;-84
2022/01/06 01:06:18;;;;;;;11.88;3.25;;;1.70;99.90;;;;;;4994737;28;20041;-84
2022/01/06 01:08:44;;;;;;;16.95;1.83;;;1.00;99.90;;;;;;4994243;28;20125;-85
2022/01/06 01:11:09;;;;;;;22.38;3.45;;;1.60;99.90;;;;;;5006272;28;20078;-85
2022/01/06 01:13:43;;;;;;;9.73;2.17;;;1.50;99.90;;;;;;5002544;28;20054;-85
2022/01/06 01:16:21;;;;;;;15.25;2.50;;;1.30;99.90;;;;;;4982964;28;20050;-85
2022/01/06 01:18:49;;;;;;;13.77;2.72;;;1.20;99.90;;;;;;4980660;28;20038;-84
2022/01/06 01:21:15;;;;;;;13.82;2.85;;;1.20;99.90;;;;;;4980466;28;20073;-84
2022/01/06 01:23:40;;;;;;;13.90;2.63;;;1.60;99.90;;;;;;4979820;28;20046;-84
2022/01/06 01:26:06;;;;;;;21.60;3.38;;;0.90;99.90;;;;;;4996333;28;20048;-84
2022/01/06 01:28:42;;;;;;;11.95;2.03;;;0.90;99.90;;;;;;4987656;28;20068;-85
2022/01/06 01:31:28;;;;;;;15.13;2.80;;;0.80;99.90;;;;;;4996639;28;20054;-84
2022/01/06 01:33:57;;;;;;;14.95;2.40;;;1.50;99.90;;;;;;4996412;28;20128;-84
2022/01/06 01:36:24;;;;;;;13.52;2.28;;;0.70;99.90;;;;;;5012085;28;20057;-84
2022/01/06 01:38:49;;;;;;;22.88;2.85;;;0.70;99.90;;;;;;4995309;28;20093;-85
2022/01/06 01:41:16;;;;;;;19.58;4.15;;;0.50;99.90;;;;;;4996488;28;20042;-85
2022/01/06 01:43:46;;;;;;;14.98;2.25;;;0.50;99.90;;;;;;4981867;28;20490;-84
2022/01/06 01:46:17;;;;;;;22.90;3.75;;;0.40;99.90;;;;;;4999279;28;20466;-84
2022/01/06 01:48:58;;;;;;;15.82;3.20;;;0.30;99.90;;;;;;5016359;28;20054;-84
2022/01/06 01:51:24;;;;;;;18.52;3.53;;;0.30;99.90;;;;;;5016396;28;20064;-84
2022/01/06 01:53:49;;;;;;;23.17;4.90;;;0.40;99.90;;;;;;4981955;28;20046;-85
2022/01/06 01:56:16;;;;;;;19.92;2.90;;;0.50;99.90;;;;;;4997643;28;20142;-84
2022/01/06 01:58:42;;;;;;;21.70;2.33;;;0.60;99.90;;;;;;5016949;28;20045;-84
2022/01/06 02:01:08;;;;;;;29.88;3.33;;;1.10;99.90;;;;;;5014652;28;20058;-84
2022/01/06 02:03:34;;;;;;;30.48;5.25;;;0.10;99.90;;;;;;4995853;28;20049;-85
2022/01/06 02:05:59;;;;;;;24.83;3.22;;;0.80;99.90;;;;;;4997759;28;20088;-84
2022/01/06 02:08:25;;;;;;;25.35;2.45;;;0.70;99.90;;;;;;5017268;28;20073;-84
2022/01/06 02:10:51;;;;;;;22.13;2.88;;;1.40;99.90;;;;;;5016376;28;20054;-84
2022/01/06 02:13:16;;;;;;;34.83;4.45;;;0.40;99.90;;;;;;4999124;28;20078;-84
2022/01/06 02:15:42;;;;;;;18.88;3.05;;;0.60;99.90;;;;;;4997148;28;20063;-84
2022/01/06 02:18:08;;;;;;;29.70;4.03;;;0.60;99.90;;;;;;4997177;28;20081;-84
2022/01/06 02:20:33;;;;;;;29.58;3.85;;;0.80;99.90;;;;;;4997634;28;20054;-84
2022/01/06 02:22:59;;;;;;;16.63;3.22;;;1.00;99.90;;;;;;5013912;28;20651;-84
2022/01/06 02:25:31;;;;;;;18.92;3.83;;;1.00;99.90;;;;;;4997014;28;20176;-84
2022/01/06 02:28:00;;;;;;;28.10;3.30;;;0.90;99.90;;;;;;4992313;28;20061;-85
2022/01/06 02:30:26;;;;;;;21.95;2.83;;;1.60;99.90;;;;;;4978520;28;20050;-84
2022/01/06 02:32:56;;;;;;;27.02;3.47;;;0.80;99.90;;;;;;4976064;28;20050;-84
2022/01/06 02:35:23;;;;;;;30.67;4.28;;;1.00;99.90;;;;;;4961333;28;20046;-84
2022/01/06 02:37:49;;;;;;;14.73;2.75;;;0.80;99.90;;;;;;4976877;28;20096;-84
2022/01/06 02:40:22;;;;;;;14.52;2.70;;;0.80;99.90;;;;;;4963372;28;20482;-84
2022/01/06 02:42:52;;;;;;;23.52;3.58;;;0.90;99.90;;;;;;4981801;28;20062;-84
2022/01/06 02:45:19;;;;;;;25.48;2.60;;;0.80;99.90;;;;;;5000594;28;20058;-83
2022/01/06 02:47:46;;;;;;;15.75;2.70;;;0.90;99.90;;;;;;5000552;28;20086;-85
2022/01/06 02:50:13;;;;;;;12.68;3.53;;;1.00;99.90;;;;;;5000708;28;20102;-84
2022/01/06 02:52:38;;;;;;;23.67;2.85;;;1.10;99.90;;;;;;4983111;28;20046;-84
2022/01/06 02:55:06;;;;;;;23.08;2.35;;;1.20;99.90;;;;;;4998966;28;20053;-84
2022/01/06 02:57:31;;;;;;;20.67;3.35;;;1.30;99.90;;;;;;4979533;28;20050;-84
2022/01/06 02:59:57;;;;;;;19.80;2.90;;;1.20;99.90;;;;;;4965733;28;20061;-84
2022/01/06 03:02:24;;;;;;;28.02;4.60;;;1.10;99.90;;;;;;4980955;28;20046;-84
2022/01/06 03:04:50;;;;;;;26.10;3.55;;;1.00;99.90;;;;;;4996761;28;20057;-84
2022/01/06 03:07:16;;;;;;;27.42;3.03;;;1.10;99.90;;;;;;4996505;28;20069;-84
2022/01/06 03:09:43;;;;;;;16.52;2.38;;;1.00;99.90;;;;;;4996108;28;20062;-84
2022/01/06 03:12:47;;;;;;;29.92;5.22;;;0.90;99.90;;;;;;4979245;28;20061;-84
2022/01/06 03:15:08;;;;;;;23.08;3.58;;;0.80;99.90;;;;;;4992231;28;20096;-84
2022/01/06 03:17:38;;;;;;;29.25;3.80;;;0.70;99.90;;;;;;4996388;28;20134;-83
2022/01/06 03:20:06;;;;;;;16.98;2.88;;;0.70;99.90;;;;;;4977350;28;20058;-83
2022/01/06 03:22:32;;;;;;;26.13;3.60;;;0.70;99.90;;;;;;4996081;28;20054;-84
2022/01/06 03:24:58;;;;;;;22.60;3.13;;;0.70;99.90;;;;;;4994692;28;20500;-84
2022/01/06 03:27:24;;;;;;;25.60;3.33;;;1.60;99.90;;;;;;4976462;28;20077;-84
2022/01/06 03:29:50;;;;;;;22.58;4.20;;;0.70;99.90;;;;;;4995937;28;20331;-83
2022/01/06 03:32:19;;;;;;;25.90;3.92;;;0.70;99.90;;;;;;5013016;28;20413;-84
2022/01/06 03:34:46;;;;;;;18.42;4.07;;;0.70;99.90;;;;;;4997885;28;20037;-84
2022/01/06 03:37:13;;;;;;;22.35;3.30;;;0.70;99.90;;;;;;4998102;28;20054;-84
2022/01/06 03:39:40;;;;;;;18.48;4.15;;;0.70;99.90;;;;;;5014925;28;20072;-84
2022/01/06 03:42:06;;;;;;;28.45;3.38;;;0.80;99.90;;;;;;5016193;28;20448;-83
2022/01/06 03:44:32;;;;;;;35.58;3.83;;;0.70;99.90;;;;;;5015008;28;20056;-84
2022/01/06 03:46:58;;;;;;;37.80;4.15;;;0.60;99.90;;;;;;4996560;28;20054;-84
2022/01/06 03:49:23;;;;;;;26.67;4.50;;;0.50;99.90;;;;;;5015749;28;20044;-84
2022/01/06 03:51:49;;;;;;;19.63;2.47;;;0.60;99.90;;;;;;4983414;28;20046;-84
2022/01/06 03:54:15;;;;;;;24.95;3.53;;;0.30;99.90;;;;;;5014629;28;20104;-84
2022/01/06 03:56:41;;;;;;;21.08;4.32;;;0.20;99.90;;;;;;4996971;28;20443;-83
2022/01/06 03:59:07;;;;;;;29.95;4.63;;;0.10;99.90;;;;;;4999056;28;20655;-84
2022/01/06 04:01:33;;;;;;;33.45;3.63;;;0.00;99.90;;;;;;5015204;28;20098;-84
2022/01/06 04:03:59;;;;;;;25.60;3.03;;;0.60;99.90;;;;;;4997446;28;20613;-83
2022/01/06 04:06:25;;;;;;;17.23;3.60;;;-0.20;99.90;;;;;;5012404;28;20058;-83
2022/01/06 04:08:51;;;;;;;11.40;2.88;;;-0.30;99.90;;;;;;4994269;28;20434;-83
2022/01/06 04:11:18;;;;;;;15.93;4.90;;;-0.40;99.90;;;;;;5013194;28;20045;-83
2022/01/06 04:13:43;;;;;;;26.25;4.28;;;-0.40;99.90;;;;;;5012679;28;20038;-83
2022/01/06 04:16:13;;;;;;;34.83;4.93;;;0.10;99.90;;;;;;4994405;28;20058;-83
2022/01/06 04:18:38;;;;;;;28.65;3.05;;;-0.50;99.90;;;;;;5013451;28;20042;-83
2022/01/06 04:21:06;;;;;;;21.85;2.78;;;-0.50;99.90;;;;;;4994587;28;20558;-85
2022/01/06 04:23:33;;;;;;;17.52;2.83;;;-0.60;99.90;;;;;;5011774;28;20053;-84
2022/01/06 04:25:58;;;;;;;24.98;4.40;;;-0.60;99.90;;;;;;4977724;28;20046;-83
2022/01/06 04:28:24;;;;;;;26.55;3.42;;;-0.40;99.90;;;;;;4996056;28;20538;-83
2022/01/06 04:30:50;;;;;;;26.05;3.88;;;-0.70;99.90;;;;;;5012003;28;20061;-83
2022/01/06 04:33:16;;;;;;;31.10;5.38;;;-0.60;99.90;;;;;;4978565;28;20076;-83
2022/01/06 04:35:42;;;;;;;38.78;4.95;;;-0.80;99.90;;;;;;4994291;28;20045;-83
2022/01/06 04:38:08;;;;;;;26.85;3.97;;;-0.90;99.90;;;;;;5012329;28;20555;-83
2022/01/06 04:40:33;;;;;;;30.50;3.85;;;-1.00;99.90;;;;;;4995488;28;20556;-83
2022/01/06 04:42:59;;;;;;;14.27;2.42;;;-1.00;99.90;;;;;;5012910;28;20053;-83
2022/01/06 04:45:25;;;;;;;29.23;3.42;;;-0.50;99.90;;;;;;4997307;28;20050;-82
2022/01/06 04:47:50;;;;;;;34.05;3.20;;;-0.30;99.90;;;;;;4997077;28;20061;-83
2022/01/06 04:50:16;;;;;;;37.50;3.35;;;0.40;99.90;;;;;;5011491;28;20058;-83
2022/01/06 04:52:42;;;;;;;26.92;3.17;;;0.40;99.90;;;;;;5011375;28;20414;-83
2022/01/06 04:55:08;;;;;;;33.97;3.10;;;-0.40;99.90;;;;;;5010006;28;20045;-83
2022/01/06 04:57:34;;;;;;;20.38;2.90;;;-0.40;99.90;;;;;;4991982;28;20042;-82
2022/01/06 04:59:59;;;;;;;37.60;3.65;;;-0.50;99.90;;;;;;4976873;28;20058;-82
2022/01/06 05:02:25;;;;;;;19.63;3.22;;;-0.50;99.90;;;;;;5012157;28;20088;-83
2022/01/06 05:04:51;;;;;;;34.47;4.32;;;-0.60;99.90;;;;;;4976723;28;20106;-82
2022/01/06 05:07:16;;;;;;;22.02;4.28;;;-0.60;99.90;;;;;;4993408;28;20054;-83
2022/01/06 05:09:42;;;;;;;14.25;2.85;;;-0.70;99.90;;;;;;4980240;28;20058;-82
2022/01/06 05:12:07;;;;;;;21.48;2.40;;;-0.70;99.90;;;;;;4991672;28;20103;-81
2022/01/06 05:14:33;;;;;;;23.75;3.53;;;-0.70;99.90;;;;;;5010531;28;20544;-83
2022/01/06 05:17:00;;;;;;;18.15;2.67;;;-0.80;99.90;;;;;;5010099;28;20057;-83
2022/01/06 05:19:25;;;;;;;16.83;3.22;;;-0.80;99.90;;;;;;4991590;28;20050;-84
2022/01/06 05:21:52;;;;;;;33.85;4.53;;;-0.90;99.90;;;;;;4992470;28;20060;-81
2022/01/06 05:24:19;;;;;;;34.97;4.75;;;-0.90;99.90;;;;;;4991671;28;20053;-81
2022/01/06 05:26:45;;;;;;;20.63;3.05;;;-0.90;99.90;;;;;;5009283;28;20056;-82
2022/01/06 05:29:13;;;;;;;22.90;4.57;;;-0.90;99.90;;;;;;4975176;28;20061;-82
2022/01/06 05:31:39;;;;;;;11.95;2.28;;;-0.70;99.90;;;;;;4991304;28;20057;-83
2022/01/06 05:34:06;;;;;;;21.25;2.95;;;-1.00;99.90;;;;;;5010216;28;20068;-83
2022/01/06 05:36:33;;;;;;;23.35;2.90;;;-1.00;99.90;;;;;;4994260;28;20042;-83
2022/01/06 05:38:59;;;;;;;22.17;2.88;;;-1.10;99.90;;;;;;4977842;28;20111;-83
2022/01/06 05:41:25;;;;;;;29.17;6.25;;;-1.10;99.90;;;;;;5011522;28;20049;-83
2022/01/06 05:43:51;;;;;;;24.98;4.18;;;-1.20;99.90;;;;;;5010722;28;20061;-83
2022/01/06 05:46:17;;;;;;;32.67;3.97;;;-1.10;99.90;;;;;;4993782;28;20050;-83
2022/01/06 05:48:44;;;;;;;17.48;2.92;;;-1.20;99.90;;;;;;4978256;28;20053;-83
2022/01/06 05:51:10;;;;;;;26.77;4.20;;;-1.30;99.90;;;;;;5012401;28;20042;-82
2022/01/06 05:53:35;;;;;;;18.85;5.10;;;-0.60;99.90;;;;;;5011281;28;20049;-82
2022/01/06 05:56:01;;;;;;;22.00;3.38;;;-1.20;99.90;;;;;;4992669;28;20498;-82
2022/01/06 05:58:26;;;;;;;25.67;3.17;;;-1.20;99.90;;;;;;5010852;28;20421;-82
2022/01/06 06:00:52;;;;;;;15.77;3.38;;;-1.30;99.90;;;;;;5011967;28;20080;-82
2022/01/06 06:03:18;;;;;;;42.97;4.72;;;-0.90;99.90;;;;;;4994637;28;20105;-83
2022/01/06 06:05:43;;;;;;;28.95;5.40;;;-1.40;99.90;;;;;;4985548;28;20064;-82
2022/01/06 06:08:10;;;;;;;23.40;4.00;;;-1.40;99.90;;;;;;5005664;28;20444;-82
2022/01/06 06:10:36;;;;;;;23.23;3.05;;;-1.40;99.90;;;;;;5000647;28;20049;-82
2022/01/06 06:13:02;;;;;;;27.73;4.15;;;-1.50;99.90;;;;;;5011593;28;20058;-82
2022/01/06 06:15:34;;;;;;;34.15;5.93;;;-1.50;99.90;;;;;;5009100;28;20080;-82
2022/01/06 06:18:01;;;;;;;22.10;3.53;;;-1.50;99.90;;;;;;4994105;28;20045;-82
2022/01/06 06:20:26;;;;;;;27.38;3.15;;;-1.60;99.90;;;;;;5014212;28;20051;-82
2022/01/06 06:22:52;;;;;;;34.15;4.90;;;-1.60;99.90;;;;;;5013466;28;20050;-82
2022/01/06 06:25:17;;;;;;;39.42;4.43;;;-1.60;99.90;;;;;;4997196;28;20058;-82
2022/01/06 06:27:44;;;;;;;14.88;3.95;;;-1.50;99.90;;;;;;4997924;28;20109;-82
2022/01/06 06:30:10;;;;;;;21.05;3.63;;;-1.20;99.90;;;;;;5016788;28;20050;-82
2022/01/06 06:32:36;;;;;;;23.73;3.17;;;-1.50;99.90;;;;;;4999727;28;20053;-81
2022/01/06 06:35:03;;;;;;;28.70;5.20;;;-1.60;99.90;;;;;;4998178;28;20126;-82
2022/01/06 06:37:29;;;;;;;18.73;3.10;;;-1.60;99.90;;;;;;5012704;28;20105;-82
2022/01/06 06:39:57;;;;;;;28.30;3.42;;;-1.60;99.90;;;;;;4993344;28;20160;-82
2022/01/06 06:42:26;;;;;;;27.00;4.35;;;-1.60;99.90;;;;;;5011846;28;20049;-82
2022/01/06 06:44:51;;;;;;;25.10;4.72;;;-1.60;99.90;;;;;;5011991;28;20046;-82
2022/01/06 06:47:18;;;;;;;30.20;3.80;;;-1.70;99.90;;;;;;5012221;28;20107;-81
2022/01/06 06:49:43;;;;;;;31.13;3.85;;;-1.70;99.90;;;;;;5012961;28;20056;-82
2022/01/06 06:52:09;;;;;;;26.98;3.97;;;-1.70;99.90;;;;;;5011938;28;20046;-81
2022/01/06 06:54:34;;;;;;;22.80;4.20;;;-1.80;99.90;;;;;;4992879;28;20523;-81
2022/01/06 06:57:00;;;;;;;23.80;4.50;;;-1.60;99.90;;;;;;4992691;28;20064;-82
2022/01/06 06:59:26;;;;;;;24.77;4.30;;;-1.80;99.90;;;;;;5017789;28;20523;-82
2022/01/06 07:01:52;;;;;;;25.65;4.60;;;-1.80;99.90;;;;;;4995234;28;20064;-82
2022/01/06 07:04:17;;;;;;;30.27;4.53;;;-1.80;99.90;;;;;;5029423;28;20037;-81
2022/01/06 07:06:43;;;;;;;27.23;3.38;;;-1.60;99.90;;;;;;5030338;28;20049;-81
2022/01/06 07:09:08;;;;;;;37.17;5.35;;;-1.90;99.90;;;;;;4994983;28;20045;-82
2022/01/06 07:11:34;;;;;;;27.08;4.70;;;-1.80;99.90;;;;;;5029971;28;20072;-81
2022/01/06 07:14:00;;;;;;;24.50;4.82;;;-1.90;99.90;;;;;;5030710;28;20095;-81
2022/01/06 07:16:25;;;;;;;36.05;5.35;;;-1.90;99.90;;;;;;5029311;28;20073;-81
2022/01/06 07:18:51;;;;;;;27.05;3.78;;;-1.60;99.90;;;;;;5010441;28;20467;-82
2022/01/06 07:21:16;;;;;;;20.58;3.58;;;-1.90;99.90;;;;;;5011446;28;20518;-81
2022/01/06 07:23:42;;;;;;;21.92;4.65;;;-1.90;99.90;;;;;;5011670;28;20080;-81
2022/01/06 07:26:08;;;;;;;27.10;5.68;;;-1.90;99.90;;;;;;5027667;28;20107;-82
2022/01/06 07:28:33;;;;;;;19.33;5.03;;;-1.80;99.90;;;;;;5022233;28;20169;-82
2022/01/06 07:30:59;;;;;;;34.60;4.50;;;-1.80;99.90;;;;;;5008344;28;20054;-81
2022/01/06 07:33:25;;;;;;;21.13;4.55;;;-1.90;99.90;;;;;;5009560;28;20455;-81
2022/01/06 07:35:51;;;;;;;26.10;3.97;;;-1.80;99.90;;;;;;4992759;28;20104;-81
2022/01/06 07:38:17;;;;;;;26.95;3.97;;;-1.90;99.90;;;;;;5008878;28;20050;-81
2022/01/06 07:40:43;;;;;;;32.80;3.70;;;-1.90;99.90;;;;;;4991062;28;20116;-82
2022/01/06 07:43:09;;;;;;;22.02;3.75;;;-1.90;99.90;;;;;;5007241;28;20049;-81
2022/01/06 07:45:35;;;;;;;23.98;3.60;;;-1.90;99.90;;;;;;5009217;28;20069;-81
2022/01/06 07:48:03;;;;;;;20.70;3.50;;;-1.30;99.90;;;;;;4989654;28;20099;-81
2022/01/06 07:50:32;;;;;;;17.13;2.70;;;-1.90;99.90;;;;;;5008750;28;20880;-82
2022/01/06 07:52:58;;;;;;;30.90;4.05;;;-1.90;99.90;;;;;;4992590;28;20110;-81
2022/01/06 07:55:24;;;;;;;23.58;4.30;;;-1.90;99.90;;;;;;5009750;28;20096;-81
2022/01/06 07:57:50;;;;;;;13.15;3.00;;;-1.90;99.90;;;;;;5010340;28;20081;-82
2022/01/06 08:00:18;;;;;;;29.40;3.78;;;-1.90;99.90;;;;;;5008182;28;20061;-81
2022/01/06 08:02:44;;;;;;;29.77;3.78;;;-1.90;99.90;;;;;;4988161;28;20050;-81
2022/01/06 08:05:13;;;;;;;24.67;4.15;;;-1.90;99.90;;;;;;5006000;28;20333;-81
2022/01/06 08:07:39;;;;;;;23.27;3.90;;;-1.90;99.90;;;;;;5006050;28;20553;-81
2022/01/06 08:10:06;;;;;;;17.48;3.42;;;-1.80;99.90;;;;;;4972890;28;20086;-82
2022/01/06 08:12:31;;;;;;;27.60;4.13;;;-1.80;99.90;;;;;;5006209;28;20076;-81
2022/01/06 08:14:57;;;;;;;27.45;5.00;;;-1.70;99.90;;;;;;5006523;28;20145;-81
2022/01/06 08:17:23;;;;;;;33.97;4.63;;;-1.70;99.90;;;;;;5006702;28;20061;-81
2022/01/06 08:19:48;;;;;;;22.92;4.72;;;-1.70;99.90;;;;;;4987372;28;20054;-81
2022/01/06 08:22:14;;;;;;;24.60;4.45;;;-1.70;99.90;;;;;;5005355;28;20499;-81
2022/01/06 08:24:40;;;;;;;30.15;4.32;;;-1.60;99.90;;;;;;5005608;28;20049;-81
2022/01/06 08:27:08;;;;;;;29.08;3.67;;;-1.70;99.90;;;;;;4987666;28;20590;-81
2022/01/06 08:29:37;;;;;;;46.72;4.72;;;-0.90;99.90;;;;;;5005257;28;20066;-81
2022/01/06 08:32:04;;;;;;;31.70;3.83;;;-1.60;99.90;;;;;;4988049;28;20045;-81
2022/01/06 08:34:29;;;;;;;29.35;3.70;;;-1.50;99.90;;;;;;4971499;28;20085;-81
2022/01/06 08:36:55;;;;;;;17.48;3.75;;;-1.50;99.90;;;;;;4987881;28;20627;-82
2022/01/06 08:39:21;;;;;;;29.33;5.30;;;-1.50;99.90;;;;;;5005646;28;20128;-81
2022/01/06 08:41:48;;;;;;;28.40;3.75;;;-1.40;99.90;;;;;;5005912;28;20117;-81
2022/01/06 08:44:13;;;;;;;23.20;4.22;;;-1.40;99.90;;;;;;5005469;28;20157;-81
2022/01/06 08:46:39;;;;;;;30.67;3.95;;;-1.40;99.90;;;;;;4987699;28;20521;-81
2022/01/06 08:49:06;;;;;;;26.38;3.67;;;-1.40;99.90;;;;;;5005499;28;20045;-80
2022/01/06 08:51:32;;;;;;;29.85;4.40;;;-1.30;99.90;;;;;;4988061;28;20066;-81
2022/01/06 08:53:58;;;;;;;25.70;4.60;;;-1.30;99.90;;;;;;5005668;28;20060;-81
2022/01/06 08:56:24;;;;;;;47.53;4.68;;;-1.10;99.90;;;;;;4996667;28;20045;-81
2022/01/06 08:58:50;;;;;;;38.22;4.82;;;-1.10;99.90;;;;;;5000352;28;20042;-81
2022/01/06 09:01:16;;;;;;;28.58;4.13;;;-1.00;99.90;;;;;;4996955;28;20117;-81
2022/01/06 09:03:41;;;;;;;26.20;5.50;;;-0.90;99.90;;;;;;4997041;28;20060;-81
2022/01/06 09:06:07;;;;;;;28.90;5.05;;;-0.90;99.90;;;;;;4996021;28;20054;-81
2022/01/06 09:08:33;;;;;;;41.40;5.43;;;-0.90;99.90;;;;;;4973540;28;20492;-81
2022/01/06 09:10:58;;;;;;;29.92;5.80;;;-0.80;99.90;;;;;;4995704;28;20129;-81
2022/01/06 09:13:24;;;;;;;24.00;6.00;;;0.30;99.90;;;;;;4990358;28;20092;-82
2022/01/06 09:15:50;;;;;;;38.33;7.15;;;-0.60;99.90;;;;;;4985711;28;20073;-81
2022/01/06 09:18:15;;;;;;;25.95;6.32;;;-0.70;99.90;;;;;;4984494;28;20050;-82
2022/01/06 09:20:41;;;;;;;35.13;6.13;;;-0.60;99.90;;;;;;4952047;28;20046;-81
2022/01/06 09:23:07;;;;;;;40.70;7.00;;;-0.40;99.90;;;;;;4967805;28;20096;-81
2022/01/06 09:25:32;;;;;;;40.70;7.90;;;-0.30;99.90;;;;;;4969534;28;20050;-82
2022/01/06 09:27:58;;;;;;;30.92;8.75;;;-0.10;99.90;;;;;;4995469;28;20100;-81
2022/01/06 09:30:25;;;;;;;43.58;8.20;;;0.00;99.90;;;;;;4980414;28;20046;-82
2022/01/06 09:32:53;;;;;;;31.65;6.38;;;0.00;99.90;;;;;;4967091;28;20061;-82
2022/01/06 09:35:19;;;;;;;37.13;6.88;;;0.00;99.90;;;;;;4985017;28;20050;-82
2022/01/06 09:37:45;;;;;;;40.03;6.55;;;0.00;99.90;;;;;;4985020;28;20104;-82
2022/01/06 09:40:11;;;;;;;32.03;5.90;;;0.00;99.90;;;;;;4967333;28;20464;-82
2022/01/06 09:42:40;;;;;;;28.33;5.47;;;0.10;99.90;;;;;;4985003;28;20038;-81
2022/01/06 09:45:09;;;;;;;43.13;7.50;;;0.10;99.90;;;;;;4985303;28;20050;-81
2022/01/06 09:47:37;;;;;;;31.63;4.80;;;0.10;99.90;;;;;;4984785;28;20065;-81
2022/01/06 09:50:08;;;;;;;37.67;6.22;;;0.20;99.90;;;;;;4984719;28;20528;-80
2022/01/06 09:52:34;;;;;;;20.33;4.63;;;0.20;99.90;;;;;;4984505;28;20116;-81
2022/01/06 09:55:03;;;;;;;28.50;4.65;;;1.00;99.90;;;;;;4985103;28;20074;-82
2022/01/06 09:57:30;;;;;;;33.88;6.15;;;0.30;99.90;;;;;;4984555;28;20084;-82
2022/01/06 09:59:55;;;;;;;33.13;5.07;;;0.40;99.90;;;;;;4967614;28;20050;-82
2022/01/06 10:02:21;;;;;;;22.40;5.55;;;0.40;99.90;;;;;;4984357;28;20379;-83
2022/01/06 10:04:58;;;;;;;34.70;5.82;;;0.50;99.90;;;;;;4985244;28;20148;-82
2022/01/06 10:07:24;;;;;;;31.98;4.60;;;0.50;99.90;;;;;;4985587;28;20058;-82
2022/01/06 10:09:50;;;;;;;21.30;4.68;;;0.50;99.90;;;;;;4967534;28;20481;-82
2022/01/06 10:12:16;;;;;;;24.80;4.20;;;0.60;99.90;;;;;;4985558;28;20054;-83
2022/01/06 10:14:46;;;;;;;29.42;4.47;;;0.60;99.90;;;;;;4966637;28;20375;-82
2022/01/06 10:17:27;;;;;;;33.72;4.88;;;0.70;99.90;;;;;;4985114;28;20057;-82
2022/01/06 10:19:54;;;;;;;30.38;4.72;;;0.70;99.90;;;;;;4986433;28;20151;-82
2022/01/06 10:22:21;;;;;;;30.05;5.30;;;0.70;99.90;;;;;;4986416;28;20054;-83
2022/01/06 10:24:49;;;;;;;24.13;4.00;;;0.80;99.90;;;;;;4985451;28;20063;-83
2022/01/06 10:27:19;;;;;;;28.05;4.43;;;1.10;99.90;;;;;;4985788;28;20662;-82
2022/01/06 10:29:52;;;;;;;19.95;3.90;;;0.90;99.90;;;;;;4985560;28;20066;-83
2022/01/06 10:32:20;;;;;;;31.35;4.20;;;0.90;99.90;;;;;;4986133;28;20042;-83
2022/01/06 10:34:49;;;;;;;31.30;4.68;;;1.00;99.90;;;;;;4987421;28;20105;-83
2022/01/06 10:37:19;;;;;;;25.23;5.13;;;1.10;99.90;;;;;;4992202;28;20058;-82
2022/01/06 10:39:46;;;;;;;30.70;4.50;;;1.10;99.90;;;;;;4992915;28;20046;-83
2022/01/06 10:42:12;;;;;;;24.27;6.72;;;1.20;99.90;;;;;;4991936;28;20433;-83
2022/01/06 10:45:11;;;;;;;23.98;3.67;;;1.40;99.90;;;;;;4971295;28;20038;-83
2022/01/06 10:47:45;;;;;;;18.83;4.07;;;1.50;99.90;;;;;;4986450;28;20514;-83
2022/01/06 10:50:20;;;;;;;30.58;5.40;;;1.60;99.90;;;;;;4984131;28;20046;-83
2022/01/06 10:52:54;;;;;;;23.90;4.35;;;1.60;99.90;;;;;;4984095;28;20042;-83
2022/01/06 10:55:26;;;;;;;20.90;4.03;;;1.80;99.90;;;;;;4984100;28;20136;-83
2022/01/06 10:57:58;;;;;;;24.23;4.43;;;1.80;99.90;;;;;;4984187;28;20070;-84
2022/01/06 11:00:33;;;;;;;26.10;3.72;;;1.90;99.90;;;;;;4983290;28;20136;-83
2022/01/06 11:03:11;;;;;;;18.88;3.58;;;2.00;99.90;;;;;;4966787;28;20042;-83
2022/01/06 11:05:40;;;;;;;33.42;4.82;;;2.10;99.90;;;;;;4987113;28;20050;-83
2022/01/06 11:08:08;;;;;;;18.23;3.90;;;2.20;99.90;;;;;;4987286;28;20089;-83
2022/01/06 11:10:36;;;;;;;20.15;3.47;;;2.30;99.90;;;;;;4987022;28;20046;-83
2022/01/06 11:13:05;;;;;;;15.95;3.22;;;2.40;99.90;;;;;;4987518;28;20046;-83
2022/01/06 11:15:32;;;;;;;16.92;4.95;;;2.60;99.90;;;;;;4986477;28;20050;-84
2022/01/06 11:18:00;;;;;;;24.17;3.88;;;2.80;99.90;;;;;;4985813;28;20046;-83
2022/01/06 11:20:28;;;;;;;14.82;4.93;;;3.00;99.90;;;;;;4985086;28;20060;-83
2022/01/06 11:22:58;;;;;;;28.90;4.32;;;3.10;99.90;;;;;;4967076;28;20073;-83
2022/01/06 11:25:37;;;;;;;41.97;6.13;;;3.30;99.90;;;;;;4984606;28;20394;-83
2022/01/06 11:28:07;;;;;;;24.88;5.43;;;3.30;99.90;;;;;;4984502;28;20547;-83
2022/01/06 11:30:42;;;;;;;50.15;6.50;;;3.50;99.90;;;;;;4984141;28;20054;-83
2022/01/06 11:33:08;;;;;;;21.17;6.20;;;3.60;99.90;;;;;;4967455;28;20061;-84
2022/01/06 11:35:54;;;;;;;23.73;3.25;;;3.70;99.90;;;;;;4966851;28;20137;-84
2022/01/06 11:38:26;;;;;;;25.63;3.73;;;3.80;99.90;;;;;;4984358;28;20408;-83
2022/01/06 11:41:07;;;;;;;18.52;3.90;;;3.90;99.90;;;;;;4966778;28;20724;-84
2022/01/06 11:43:39;;;;;;;32.78;5.18;;;4.00;99.90;;;;;;4984213;28;20050;-85
2022/01/06 11:46:05;;;;;;;15.73;3.60;;;4.10;99.90;;;;;;4983868;28;20085;-84
2022/01/06 11:48:31;;;;;;;31.67;4.45;;;4.00;99.90;;;;;;4984162;28;20453;-84
2022/01/06 11:50:56;;;;;;;23.88;3.85;;;4.10;99.90;;;;;;4984360;28;20061;-84
2022/01/06 11:53:33;;;;;;;17.63;3.80;;;4.10;99.90;;;;;;4984064;28;20054;-83
2022/01/06 11:56:11;;;;;;;23.88;4.15;;;4.20;99.90;;;;;;4984470;28;20065;-82
2022/01/06 11:58:37;;;;;;;24.40;4.07;;;4.20;99.90;;;;;;4966223;28;20101;-83
2022/01/06 12:01:12;;;;;;;25.58;3.83;;;4.30;99.90;;;;;;4983757;28;20488;-82
2022/01/06 12:03:43;;;;;;;16.83;2.97;;;4.40;99.90;;;;;;4966488;28;20057;-82
2022/01/06 12:06:21;;;;;;;18.77;3.42;;;4.40;99.90;;;;;;4966078;28;20050;-82
2022/01/06 12:08:46;;;;;;;16.08;3.83;;;4.50;99.90;;;;;;4983435;28;20046;-82
2022/01/06 12:11:26;;;;;;;11.02;3.03;;;4.50;99.90;;;;;;4966900;28;20052;-82
2022/01/06 12:13:54;;;;;;;17.15;2.90;;;4.60;99.90;;;;;;4984863;28;20390;-82
2022/01/06 12:16:31;;;;;;;21.00;4.13;;;4.50;99.90;;;;;;4984378;28;20141;-82
2022/01/06 12:18:59;;;;;;;21.10;3.95;;;4.60;99.90;;;;;;4985472;28;20057;-82
2022/01/06 12:21:26;;;;;;;21.55;3.55;;;4.70;99.90;;;;;;4968737;28;20058;-82
2022/01/06 12:24:06;;;;;;;15.13;3.42;;;4.80;99.90;;;;;;4985972;28;20172;-82
2022/01/06 12:26:33;;;;;;;18.13;3.35;;;5.00;99.90;;;;;;4986893;28;20493;-82
2022/01/06 12:28:59;;;;;;;25.52;3.65;;;5.10;99.90;;;;;;4986912;28;20062;-82
2022/01/06 12:31:30;;;;;;;21.25;3.65;;;5.20;99.90;;;;;;4986691;28;20421;-82
2022/01/06 12:34:01;;;;;;;22.45;4.60;;;5.30;99.90;;;;;;4986755;28;20085;-82
2022/01/06 12:36:30;;;;;;;24.25;4.20;;;5.40;99.90;;;;;;4986732;28;20054;-82
2022/01/06 12:38:56;;;;;;;16.02;2.63;;;5.50;99.90;;;;;;4987330;28;20497;-81
2022/01/06 12:41:30;;;;;;;17.38;4.40;;;5.60;99.90;;;;;;4953431;28;20054;-82
2022/01/06 12:43:57;;;;;;;17.95;3.92;;;5.60;99.90;;;;;;4986387;28;20042;-82
2022/01/06 12:46:31;;;;;;;18.13;3.40;;;5.60;99.90;;;;;;4986141;28;20497;-82
2022/01/06 12:48:57;;;;;;;17.90;4.00;;;5.70;99.90;;;;;;4987234;28;20052;-81
2022/01/06 12:51:28;;;;;;;33.08;5.72;;;5.80;99.90;;;;;;4985503;28;20484;-81
2022/01/06 12:54:21;;;;;;;19.63;3.92;;;5.70;99.90;;;;;;4983777;28;20057;-82